sensor_id;sensor_type;location;lat;lon;timestamp;P1;durP1;ratioP1;P2;durP2;ratioP2
44165;SDS011;30476;53.468;9.826;2022-10-15T00:01:41;12.80;;;10.70;;
44165;SDS011;30476;53.468;9.826;2022-10-15T00:04:07;13.10;;;11.70;;
44165;SDS011;30476;53.468;9.826;2022-10-15T00:06:33;12.70;;;11.17;;
44165;SDS011;30476;53.468;9.826;2022-10-15T00:08:59;16.13;;;10.63;;
44165;SDS011;30476;53.468;9.826;2022-10-15T00:11:25;15.73;;;11.50;;
44165;SDS011;30476;53.468;9.826;2022-10-15T00:13:53;14.00;;;11.30;;
44165;SDS011;30476;53.468;9.826;2022-10-15T00:16:20;16.50;;;10.77;;
44165;SDS011;30476;53.468;9.826;2022-10-15T00:18:48;14.03;;;10.50;;
44165;SDS011;30476;53.468;9.826;2022-10-15T00:21:16;12.47;;;11.27;;
44165;SDS011;30476;53.468;9.826;2022-10-15T00:23:44;13.43;;;10.70;;
44165;SDS011;30476;53.468;9.826;2022-10-15T00:26:14;14.53;;;10.90;;
44165;SDS011;30476;53.468;9.826;2022-10-15T00:28:42;14.80;;;10.97;;
44165;SDS011;30476;53.468;9.826;2022-10-15T00:31:09;12.97;;;10.70;;
44165;SDS011;30476;53.468;9.826;2022-10-15T00:33:37;15.87;;;11.67;;
44165;SDS011;30476;53.468;9.826;2022-10-15T00:36:11;15.97;;;11.67;;
44165;SDS011;30476;53.468;9.826;2022-10-15T00:38:42;13.17;;;11.70;;
44165;SDS011;30476;53.468;9.826;2022-10-15T00:41:10;14.07;;;11.77;;
44165;SDS011;30476;53.468;9.826;2022-10-15T00:43:57;14.30;;;11.47;;
44165;SDS011;30476;53.468;9.826;2022-10-15T00:46:31;13.60;;;11.97;;
44165;SDS011;30476;53.468;9.826;2022-10-15T00:51:38;15.60;;;12.80;;
44165;SDS011;30476;53.468;9.826;2022-10-15T00:54:09;18.60;;;15.30;;
44165;SDS011;30476;53.468;9.826;2022-10-15T00:56:36;17.80;;;13.10;;
44165;SDS011;30476;53.468;9.826;2022-10-15T00:59:05;16.67;;;13.90;;
44165;SDS011;30476;53.468;9.826;2022-10-15T01:01:32;17.60;;;12.60;;
44165;SDS011;30476;53.468;9.826;2022-10-15T01:03:58;18.60;;;13.60;;
44165;SDS011;30476;53.468;9.826;2022-10-15T01:06:26;22.07;;;14.73;;
44165;SDS011;30476;53.468;9.826;2022-10-15T01:08:52;17.47;;;13.10;;
44165;SDS011;30476;53.468;9.826;2022-10-15T01:17:04;21.27;;;14.67;;
44165;SDS011;30476;53.468;9.826;2022-10-15T01:19:19;23.70;;;15.13;;
44165;SDS011;30476;53.468;9.826;2022-10-15T01:24:44;21.57;;;16.00;;
44165;SDS011;30476;53.468;9.826;2022-10-15T01:27:45;21.37;;;16.30;;
44165;SDS011;30476;53.468;9.826;2022-10-15T01:30:20;20.10;;;16.17;;
44165;SDS011;30476;53.468;9.826;2022-10-15T01:36:10;20.80;;;15.77;;
44165;SDS011;30476;53.468;9.826;2022-10-15T01:38:47;22.57;;;16.47;;
44165;SDS011;30476;53.468;9.826;2022-10-15T01:44:22;24.00;;;16.07;;
44165;SDS011;30476;53.468;9.826;2022-10-15T01:46:54;23.67;;;17.10;;
44165;SDS011;30476;53.468;9.826;2022-10-15T01:49:27;25.30;;;17.10;;
44165;SDS011;30476;53.468;9.826;2022-10-15T01:51:57;23.27;;;16.67;;
44165;SDS011;30476;53.468;9.826;2022-10-15T01:54:26;21.30;;;16.40;;
44165;SDS011;30476;53.468;9.826;2022-10-15T01:56:53;27.27;;;18.20;;
44165;SDS011;30476;53.468;9.826;2022-10-15T01:59:21;23.27;;;17.17;;
44165;SDS011;30476;53.468;9.826;2022-10-15T02:01:51;24.27;;;17.00;;
44165;SDS011;30476;53.468;9.826;2022-10-15T02:04:19;22.73;;;17.10;;
44165;SDS011;30476;53.468;9.826;2022-10-15T02:06:51;22.50;;;17.30;;
44165;SDS011;30476;53.468;9.826;2022-10-15T02:17:57;24.57;;;18.00;;
44165;SDS011;30476;53.468;9.826;2022-10-15T02:21:02;25.00;;;17.60;;
44165;SDS011;30476;53.468;9.826;2022-10-15T02:26:03;22.10;;;16.97;;
44165;SDS011;30476;53.468;9.826;2022-10-15T02:28:32;22.40;;;16.83;;
44165;SDS011;30476;53.468;9.826;2022-10-15T02:31:00;26.93;;;17.23;;
44165;SDS011;30476;53.468;9.826;2022-10-15T02:33:27;23.23;;;17.20;;
44165;SDS011;30476;53.468;9.826;2022-10-15T02:35:55;27.70;;;16.47;;
44165;SDS011;30476;53.468;9.826;2022-10-15T02:38:23;24.90;;;16.77;;
44165;SDS011;30476;53.468;9.826;2022-10-15T02:40:51;21.20;;;15.07;;
44165;SDS011;30476;53.468;9.826;2022-10-15T02:43:19;20.90;;;14.77;;
44165;SDS011;30476;53.468;9.826;2022-10-15T02:45:46;22.13;;;14.33;;
44165;SDS011;30476;53.468;9.826;2022-10-15T02:48:12;23.00;;;14.90;;
44165;SDS011;30476;53.468;9.826;2022-10-15T02:50:38;24.50;;;14.20;;
44165;SDS011;30476;53.468;9.826;2022-10-15T02:53:04;20.17;;;15.70;;
44165;SDS011;30476;53.468;9.826;2022-10-15T02:55:30;20.40;;;15.20;;
44165;SDS011;30476;53.468;9.826;2022-10-15T02:57:55;21.40;;;14.60;;
44165;SDS011;30476;53.468;9.826;2022-10-15T03:00:21;22.40;;;15.40;;
44165;SDS011;30476;53.468;9.826;2022-10-15T03:02:47;19.53;;;14.47;;
44165;SDS011;30476;53.468;9.826;2022-10-15T03:05:12;24.53;;;15.73;;
44165;SDS011;30476;53.468;9.826;2022-10-15T03:07:38;21.00;;;13.90;;
44165;SDS011;30476;53.468;9.826;2022-10-15T03:10:04;22.07;;;14.17;;
44165;SDS011;30476;53.468;9.826;2022-10-15T03:12:30;19.10;;;14.10;;
44165;SDS011;30476;53.468;9.826;2022-10-15T03:14:56;20.40;;;13.77;;
44165;SDS011;30476;53.468;9.826;2022-10-15T03:17:22;24.03;;;16.07;;
44165;SDS011;30476;53.468;9.826;2022-10-15T03:19:48;22.70;;;13.90;;
44165;SDS011;30476;53.468;9.826;2022-10-15T03:22:13;24.97;;;16.37;;
44165;SDS011;30476;53.468;9.826;2022-10-15T03:24:39;19.73;;;14.07;;
44165;SDS011;30476;53.468;9.826;2022-10-15T03:27:05;21.20;;;15.30;;
44165;SDS011;30476;53.468;9.826;2022-10-15T03:29:31;24.87;;;16.27;;
44165;SDS011;30476;53.468;9.826;2022-10-15T03:31:56;23.97;;;14.83;;
44165;SDS011;30476;53.468;9.826;2022-10-15T03:34:22;27.13;;;15.20;;
44165;SDS011;30476;53.468;9.826;2022-10-15T03:36:48;22.97;;;14.50;;
44165;SDS011;30476;53.468;9.826;2022-10-15T03:39:14;25.83;;;15.50;;
44165;SDS011;30476;53.468;9.826;2022-10-15T03:41:40;24.63;;;15.67;;
44165;SDS011;30476;53.468;9.826;2022-10-15T03:44:06;24.30;;;14.30;;
44165;SDS011;30476;53.468;9.826;2022-10-15T03:46:32;27.33;;;16.57;;
44165;SDS011;30476;53.468;9.826;2022-10-15T03:48:59;26.40;;;16.47;;
44165;SDS011;30476;53.468;9.826;2022-10-15T03:51:25;24.97;;;16.33;;
44165;SDS011;30476;53.468;9.826;2022-10-15T03:53:51;26.40;;;16.10;;
44165;SDS011;30476;53.468;9.826;2022-10-15T03:56:18;29.27;;;17.40;;
44165;SDS011;30476;53.468;9.826;2022-10-15T03:58:44;27.30;;;17.10;;
44165;SDS011;30476;53.468;9.826;2022-10-15T04:01:15;28.27;;;17.50;;
44165;SDS011;30476;53.468;9.826;2022-10-15T04:03:42;35.40;;;18.97;;
44165;SDS011;30476;53.468;9.826;2022-10-15T04:06:08;25.47;;;17.00;;
44165;SDS011;30476;53.468;9.826;2022-10-15T04:08:34;29.33;;;17.07;;
44165;SDS011;30476;53.468;9.826;2022-10-15T04:10:59;34.83;;;18.03;;
44165;SDS011;30476;53.468;9.826;2022-10-15T04:13:26;29.20;;;17.53;;
44165;SDS011;30476;53.468;9.826;2022-10-15T04:15:53;32.40;;;18.60;;
44165;SDS011;30476;53.468;9.826;2022-10-15T04:18:19;29.27;;;18.70;;
44165;SDS011;30476;53.468;9.826;2022-10-15T04:20:46;31.40;;;17.67;;
44165;SDS011;30476;53.468;9.826;2022-10-15T04:23:13;28.20;;;16.57;;
44165;SDS011;30476;53.468;9.826;2022-10-15T04:25:39;31.90;;;18.30;;
44165;SDS011;30476;53.468;9.826;2022-10-15T04:28:05;29.93;;;18.47;;
44165;SDS011;30476;53.468;9.826;2022-10-15T04:30:31;34.63;;;19.67;;
44165;SDS011;30476;53.468;9.826;2022-10-15T04:32:57;34.03;;;19.40;;
44165;SDS011;30476;53.468;9.826;2022-10-15T04:35:23;33.40;;;19.73;;
44165;SDS011;30476;53.468;9.826;2022-10-15T04:37:49;31.43;;;21.17;;
44165;SDS011;30476;53.468;9.826;2022-10-15T04:40:15;37.60;;;19.77;;
44165;SDS011;30476;53.468;9.826;2022-10-15T04:42:42;37.10;;;19.87;;
44165;SDS011;30476;53.468;9.826;2022-10-15T04:45:08;32.83;;;19.30;;
44165;SDS011;30476;53.468;9.826;2022-10-15T04:47:34;32.80;;;20.00;;
44165;SDS011;30476;53.468;9.826;2022-10-15T04:50:00;34.50;;;19.50;;
44165;SDS011;30476;53.468;9.826;2022-10-15T04:52:26;33.60;;;19.13;;
44165;SDS011;30476;53.468;9.826;2022-10-15T04:54:51;31.13;;;19.20;;
44165;SDS011;30476;53.468;9.826;2022-10-15T04:57:17;32.53;;;19.87;;
44165;SDS011;30476;53.468;9.826;2022-10-15T04:59:43;32.33;;;18.00;;
44165;SDS011;30476;53.468;9.826;2022-10-15T05:02:09;33.73;;;20.73;;
44165;SDS011;30476;53.468;9.826;2022-10-15T05:04:35;33.20;;;19.30;;
44165;SDS011;30476;53.468;9.826;2022-10-15T05:07:01;33.80;;;18.67;;
44165;SDS011;30476;53.468;9.826;2022-10-15T05:09:27;33.53;;;20.10;;
44165;SDS011;30476;53.468;9.826;2022-10-15T05:11:53;36.20;;;19.00;;
44165;SDS011;30476;53.468;9.826;2022-10-15T05:14:20;30.57;;;17.37;;
44165;SDS011;30476;53.468;9.826;2022-10-15T05:16:46;28.47;;;16.93;;
44165;SDS011;30476;53.468;9.826;2022-10-15T05:19:12;30.70;;;19.10;;
44165;SDS011;30476;53.468;9.826;2022-10-15T05:21:38;33.00;;;19.60;;
44165;SDS011;30476;53.468;9.826;2022-10-15T05:24:04;30.43;;;17.00;;
44165;SDS011;30476;53.468;9.826;2022-10-15T05:26:30;29.67;;;19.27;;
44165;SDS011;30476;53.468;9.826;2022-10-15T05:28:57;32.40;;;18.90;;
44165;SDS011;30476;53.468;9.826;2022-10-15T05:31:24;36.47;;;21.93;;
44165;SDS011;30476;53.468;9.826;2022-10-15T05:33:52;30.10;;;18.20;;
44165;SDS011;30476;53.468;9.826;2022-10-15T05:38:49;32.30;;;18.97;;
44165;SDS011;30476;53.468;9.826;2022-10-15T05:41:17;34.20;;;19.43;;
44165;SDS011;30476;53.468;9.826;2022-10-15T05:43:47;35.77;;;19.43;;
44165;SDS011;30476;53.468;9.826;2022-10-15T05:46:14;32.17;;;20.27;;
44165;SDS011;30476;53.468;9.826;2022-10-15T05:48:39;32.50;;;18.17;;
44165;SDS011;30476;53.468;9.826;2022-10-15T05:51:06;33.00;;;18.20;;
44165;SDS011;30476;53.468;9.826;2022-10-15T05:53:35;31.30;;;19.30;;
44165;SDS011;30476;53.468;9.826;2022-10-15T05:56:02;31.50;;;18.03;;
44165;SDS011;30476;53.468;9.826;2022-10-15T05:58:28;29.83;;;18.60;;
44165;SDS011;30476;53.468;9.826;2022-10-15T06:00:54;35.77;;;19.90;;
44165;SDS011;30476;53.468;9.826;2022-10-15T06:03:21;34.20;;;20.93;;
44165;SDS011;30476;53.468;9.826;2022-10-15T06:05:47;36.20;;;19.63;;
44165;SDS011;30476;53.468;9.826;2022-10-15T06:08:14;28.87;;;18.77;;
44165;SDS011;30476;53.468;9.826;2022-10-15T06:10:40;35.87;;;19.30;;
44165;SDS011;30476;53.468;9.826;2022-10-15T06:13:06;33.27;;;18.63;;
44165;SDS011;30476;53.468;9.826;2022-10-15T06:15:32;31.77;;;17.87;;
44165;SDS011;30476;53.468;9.826;2022-10-15T06:17:58;32.40;;;19.20;;
44165;SDS011;30476;53.468;9.826;2022-10-15T06:20:25;32.77;;;19.03;;
44165;SDS011;30476;53.468;9.826;2022-10-15T06:22:55;31.30;;;17.53;;
44165;SDS011;30476;53.468;9.826;2022-10-15T06:25:22;31.00;;;19.73;;
44165;SDS011;30476;53.468;9.826;2022-10-15T06:27:48;36.70;;;19.47;;
44165;SDS011;30476;53.468;9.826;2022-10-15T06:30:14;31.83;;;17.57;;
44165;SDS011;30476;53.468;9.826;2022-10-15T06:32:45;36.80;;;19.00;;
44165;SDS011;30476;53.468;9.826;2022-10-15T06:35:12;33.47;;;19.50;;
44165;SDS011;30476;53.468;9.826;2022-10-15T06:37:38;31.93;;;18.73;;
44165;SDS011;30476;53.468;9.826;2022-10-15T06:40:04;31.57;;;18.30;;
44165;SDS011;30476;53.468;9.826;2022-10-15T06:42:30;30.70;;;18.77;;
44165;SDS011;30476;53.468;9.826;2022-10-15T06:44:56;30.27;;;17.23;;
44165;SDS011;30476;53.468;9.826;2022-10-15T06:47:22;30.60;;;19.57;;
44165;SDS011;30476;53.468;9.826;2022-10-15T06:49:48;34.40;;;18.17;;
44165;SDS011;30476;53.468;9.826;2022-10-15T06:52:13;30.53;;;18.30;;
44165;SDS011;30476;53.468;9.826;2022-10-15T06:54:40;33.03;;;18.27;;
44165;SDS011;30476;53.468;9.826;2022-10-15T06:57:05;32.40;;;18.67;;
44165;SDS011;30476;53.468;9.826;2022-10-15T06:59:31;28.73;;;17.63;;
44165;SDS011;30476;53.468;9.826;2022-10-15T07:01:57;27.40;;;17.17;;
44165;SDS011;30476;53.468;9.826;2022-10-15T07:04:23;32.80;;;17.83;;
44165;SDS011;30476;53.468;9.826;2022-10-15T07:06:49;32.20;;;19.20;;
44165;SDS011;30476;53.468;9.826;2022-10-15T07:09:14;33.63;;;19.63;;
44165;SDS011;30476;53.468;9.826;2022-10-15T07:11:40;29.20;;;17.57;;
44165;SDS011;30476;53.468;9.826;2022-10-15T07:14:06;28.10;;;17.80;;
44165;SDS011;30476;53.468;9.826;2022-10-15T07:16:32;31.47;;;20.27;;
44165;SDS011;30476;53.468;9.826;2022-10-15T07:18:58;33.57;;;18.60;;
44165;SDS011;30476;53.468;9.826;2022-10-15T07:21:23;30.50;;;19.20;;
44165;SDS011;30476;53.468;9.826;2022-10-15T07:23:49;32.90;;;19.87;;
44165;SDS011;30476;53.468;9.826;2022-10-15T07:26:16;33.53;;;19.07;;
44165;SDS011;30476;53.468;9.826;2022-10-15T07:28:41;31.40;;;18.63;;
44165;SDS011;30476;53.468;9.826;2022-10-15T07:31:07;31.30;;;18.07;;
44165;SDS011;30476;53.468;9.826;2022-10-15T07:33:34;28.37;;;18.87;;
44165;SDS011;30476;53.468;9.826;2022-10-15T07:36:03;29.23;;;17.60;;
44165;SDS011;30476;53.468;9.826;2022-10-15T07:38:31;30.50;;;18.87;;
44165;SDS011;30476;53.468;9.826;2022-10-15T07:40:58;30.20;;;17.80;;
44165;SDS011;30476;53.468;9.826;2022-10-15T07:43:25;30.67;;;18.73;;
44165;SDS011;30476;53.468;9.826;2022-10-15T07:45:51;30.43;;;16.83;;
44165;SDS011;30476;53.468;9.826;2022-10-15T07:48:17;31.63;;;17.00;;
44165;SDS011;30476;53.468;9.826;2022-10-15T07:50:43;30.43;;;18.17;;
44165;SDS011;30476;53.468;9.826;2022-10-15T07:53:09;27.73;;;16.50;;
44165;SDS011;30476;53.468;9.826;2022-10-15T07:55:34;29.43;;;17.60;;
44165;SDS011;30476;53.468;9.826;2022-10-15T07:58:00;29.80;;;16.60;;
44165;SDS011;30476;53.468;9.826;2022-10-15T08:00:26;29.73;;;16.83;;
44165;SDS011;30476;53.468;9.826;2022-10-15T08:02:52;28.47;;;17.07;;
44165;SDS011;30476;53.468;9.826;2022-10-15T08:05:18;25.10;;;16.27;;
44165;SDS011;30476;53.468;9.826;2022-10-15T08:07:43;33.33;;;18.93;;
44165;SDS011;30476;53.468;9.826;2022-10-15T08:10:09;27.57;;;16.83;;
44165;SDS011;30476;53.468;9.826;2022-10-15T08:12:36;29.63;;;16.80;;
44165;SDS011;30476;53.468;9.826;2022-10-15T08:15:02;28.47;;;17.00;;
44165;SDS011;30476;53.468;9.826;2022-10-15T08:17:27;30.70;;;17.20;;
44165;SDS011;30476;53.468;9.826;2022-10-15T08:19:53;28.17;;;16.50;;
44165;SDS011;30476;53.468;9.826;2022-10-15T08:22:19;30.60;;;17.70;;
44165;SDS011;30476;53.468;9.826;2022-10-15T08:24:46;28.10;;;17.33;;
44165;SDS011;30476;53.468;9.826;2022-10-15T08:27:11;28.57;;;16.23;;
44165;SDS011;30476;53.468;9.826;2022-10-15T08:29:37;28.77;;;16.90;;
44165;SDS011;30476;53.468;9.826;2022-10-15T08:32:03;28.27;;;17.47;;
44165;SDS011;30476;53.468;9.826;2022-10-15T08:34:29;30.93;;;16.83;;
44165;SDS011;30476;53.468;9.826;2022-10-15T08:36:55;25.50;;;16.97;;
44165;SDS011;30476;53.468;9.826;2022-10-15T08:39:20;29.80;;;17.23;;
44165;SDS011;30476;53.468;9.826;2022-10-15T08:41:47;30.40;;;17.60;;
44165;SDS011;30476;53.468;9.826;2022-10-15T08:44:20;27.27;;;17.83;;
44165;SDS011;30476;53.468;9.826;2022-10-15T08:46:48;28.40;;;16.70;;
44165;SDS011;30476;53.468;9.826;2022-10-15T08:49:27;27.20;;;16.40;;
44165;SDS011;30476;53.468;9.826;2022-10-15T08:52:21;36.33;;;18.47;;
44165;SDS011;30476;53.468;9.826;2022-10-15T08:54:50;31.97;;;16.03;;
44165;SDS011;30476;53.468;9.826;2022-10-15T09:00:13;31.30;;;18.57;;
44165;SDS011;30476;53.468;9.826;2022-10-15T09:08:56;29.10;;;15.70;;
44165;SDS011;30476;53.468;9.826;2022-10-15T09:11:36;27.67;;;15.47;;
44165;SDS011;30476;53.468;9.826;2022-10-15T09:14:19;28.17;;;17.10;;
44165;SDS011;30476;53.468;9.826;2022-10-15T09:16:48;26.20;;;15.50;;
44165;SDS011;30476;53.468;9.826;2022-10-15T09:19:19;24.47;;;16.20;;
44165;SDS011;30476;53.468;9.826;2022-10-15T09:21:48;27.20;;;17.50;;
44165;SDS011;30476;53.468;9.826;2022-10-15T09:24:22;24.37;;;14.63;;
44165;SDS011;30476;53.468;9.826;2022-10-15T09:29:42;24.60;;;14.87;;
44165;SDS011;30476;53.468;9.826;2022-10-15T09:32:22;24.77;;;15.23;;
44165;SDS011;30476;53.468;9.826;2022-10-15T09:35:13;24.70;;;15.40;;
44165;SDS011;30476;53.468;9.826;2022-10-15T09:43:25;21.00;;;14.13;;
44165;SDS011;30476;53.468;9.826;2022-10-15T09:45:59;22.33;;;13.60;;
44165;SDS011;30476;53.468;9.826;2022-10-15T09:48:26;20.70;;;12.40;;
44165;SDS011;30476;53.468;9.826;2022-10-15T09:50:57;18.57;;;12.37;;
44165;SDS011;30476;53.468;9.826;2022-10-15T09:56:22;19.20;;;12.43;;
44165;SDS011;30476;53.468;9.826;2022-10-15T09:58:59;18.47;;;11.13;;
44165;SDS011;30476;53.468;9.826;2022-10-15T10:01:26;15.63;;;11.90;;
44165;SDS011;30476;53.468;9.826;2022-10-15T10:04:02;15.10;;;11.93;;
44165;SDS011;30476;53.468;9.826;2022-10-15T10:06:44;14.33;;;10.07;;
44165;SDS011;30476;53.468;9.826;2022-10-15T10:09:16;17.37;;;9.30;;
44165;SDS011;30476;53.468;9.826;2022-10-15T10:14:21;14.57;;;9.97;;
44165;SDS011;30476;53.468;9.826;2022-10-15T10:19:43;12.20;;;9.20;;
44165;SDS011;30476;53.468;9.826;2022-10-15T10:24:39;14.03;;;9.03;;
44165;SDS011;30476;53.468;9.826;2022-10-15T10:27:15;10.63;;;7.73;;
44165;SDS011;30476;53.468;9.826;2022-10-15T10:29:55;9.03;;;6.33;;
44165;SDS011;30476;53.468;9.826;2022-10-15T10:32:27;10.90;;;7.47;;
44165;SDS011;30476;53.468;9.826;2022-10-15T10:34:55;14.17;;;8.00;;
44165;SDS011;30476;53.468;9.826;2022-10-15T10:37:22;11.33;;;7.03;;
44165;SDS011;30476;53.468;9.826;2022-10-15T10:39:55;10.30;;;8.23;;
44165;SDS011;30476;53.468;9.826;2022-10-15T10:42:25;12.27;;;6.97;;
44165;SDS011;30476;53.468;9.826;2022-10-15T10:45:18;12.13;;;7.43;;
44165;SDS011;30476;53.468;9.826;2022-10-15T10:47:45;11.30;;;7.67;;
44165;SDS011;30476;53.468;9.826;2022-10-15T10:50:29;12.53;;;8.77;;
44165;SDS011;30476;53.468;9.826;2022-10-15T10:53:43;13.63;;;8.73;;
44165;SDS011;30476;53.468;9.826;2022-10-15T10:55:49;10.63;;;7.00;;
44165;SDS011;30476;53.468;9.826;2022-10-15T10:58:19;10.47;;;7.80;;
44165;SDS011;30476;53.468;9.826;2022-10-15T11:00:48;10.67;;;7.60;;
44165;SDS011;30476;53.468;9.826;2022-10-15T11:03:30;9.77;;;6.90;;
44165;SDS011;30476;53.468;9.826;2022-10-15T11:17:01;7.77;;;5.03;;
44165;SDS011;30476;53.468;9.826;2022-10-15T11:19:59;10.80;;;5.60;;
44165;SDS011;30476;53.468;9.826;2022-10-15T11:22:42;5.83;;;5.17;;
44165;SDS011;30476;53.468;9.826;2022-10-15T11:25:22;5.83;;;3.57;;
44165;SDS011;30476;53.468;9.826;2022-10-15T11:30:58;4.50;;;4.10;;
44165;SDS011;30476;53.468;9.826;2022-10-15T11:33:34;5.20;;;4.60;;
44165;SDS011;30476;53.468;9.826;2022-10-15T11:39:52;11.20;;;7.37;;
44165;SDS011;30476;53.468;9.826;2022-10-15T11:42:56;5.23;;;4.37;;
44165;SDS011;30476;53.468;9.826;2022-10-15T11:53:59;5.40;;;4.20;;
44165;SDS011;30476;53.468;9.826;2022-10-15T11:56:38;4.60;;;4.10;;
44165;SDS011;30476;53.468;9.826;2022-10-15T11:59:13;5.43;;;4.93;;
44165;SDS011;30476;53.468;9.826;2022-10-15T12:01:48;6.50;;;4.90;;
44165;SDS011;30476;53.468;9.826;2022-10-15T12:04:18;5.47;;;4.97;;
44165;SDS011;30476;53.468;9.826;2022-10-15T12:06:59;6.80;;;5.83;;
44165;SDS011;30476;53.468;9.826;2022-10-15T12:09:33;5.93;;;4.40;;
44165;SDS011;30476;53.468;9.826;2022-10-15T12:15:02;4.20;;;3.80;;
44165;SDS011;30476;53.468;9.826;2022-10-15T12:17:52;6.03;;;3.80;;
44165;SDS011;30476;53.468;9.826;2022-10-15T12:20:28;4.67;;;3.90;;
44165;SDS011;30476;53.468;9.826;2022-10-15T12:22:55;5.07;;;3.90;;
44165;SDS011;30476;53.468;9.826;2022-10-15T12:28:02;5.30;;;3.23;;
44165;SDS011;30476;53.468;9.826;2022-10-15T12:30:34;4.80;;;4.20;;
44165;SDS011;30476;53.468;9.826;2022-10-15T12:33:02;3.87;;;3.57;;
44165;SDS011;30476;53.468;9.826;2022-10-15T12:35:47;5.20;;;4.70;;
44165;SDS011;30476;53.468;9.826;2022-10-15T12:38:24;3.63;;;3.33;;
44165;SDS011;30476;53.468;9.826;2022-10-15T12:40:55;4.10;;;3.80;;
44165;SDS011;30476;53.468;9.826;2022-10-15T12:43:26;4.87;;;4.13;;
44165;SDS011;30476;53.468;9.826;2022-10-15T12:45:55;4.07;;;3.80;;
44165;SDS011;30476;53.468;9.826;2022-10-15T12:48:28;4.20;;;3.83;;
44165;SDS011;30476;53.468;9.826;2022-10-15T12:53:46;4.30;;;3.43;;
44165;SDS011;30476;53.468;9.826;2022-10-15T12:58:48;4.20;;;3.83;;
44165;SDS011;30476;53.468;9.826;2022-10-15T13:08:48;4.17;;;3.77;;
44165;SDS011;30476;53.468;9.826;2022-10-15T13:13:54;6.70;;;4.43;;
44165;SDS011;30476;53.468;9.826;2022-10-15T13:16:26;4.47;;;4.17;;
44165;SDS011;30476;53.468;9.826;2022-10-15T13:18:54;6.00;;;4.60;;
44165;SDS011;30476;53.468;9.826;2022-10-15T13:21:21;5.23;;;4.33;;
44165;SDS011;30476;53.468;9.826;2022-10-15T13:24:09;4.70;;;4.30;;
44165;SDS011;30476;53.468;9.826;2022-10-15T13:26:36;4.93;;;4.53;;
44165;SDS011;30476;53.468;9.826;2022-10-15T13:29:01;4.43;;;4.13;;
44165;SDS011;30476;53.468;9.826;2022-10-15T13:31:28;4.63;;;4.23;;
44165;SDS011;30476;53.468;9.826;2022-10-15T13:34:29;6.50;;;5.10;;
44165;SDS011;30476;53.468;9.826;2022-10-15T13:36:53;7.40;;;6.63;;
44165;SDS011;30476;53.468;9.826;2022-10-15T13:42:18;8.80;;;7.33;;
44165;SDS011;30476;53.468;9.826;2022-10-15T13:47:25;9.50;;;8.53;;
44165;SDS011;30476;53.468;9.826;2022-10-15T13:53:19;8.43;;;7.57;;
44165;SDS011;30476;53.468;9.826;2022-10-15T13:56:01;8.07;;;7.27;;
44165;SDS011;30476;53.468;9.826;2022-10-15T13:58:30;8.10;;;7.30;;
44165;SDS011;30476;53.468;9.826;2022-10-15T14:01:08;8.50;;;7.70;;
44165;SDS011;30476;53.468;9.826;2022-10-15T14:08:43;9.03;;;8.10;;
44165;SDS011;30476;53.468;9.826;2022-10-15T14:11:10;8.90;;;8.07;;
44165;SDS011;30476;53.468;9.826;2022-10-15T14:13:47;8.33;;;7.53;;
44165;SDS011;30476;53.468;9.826;2022-10-15T14:18:50;12.27;;;9.60;;
44165;SDS011;30476;53.468;9.826;2022-10-15T14:21:19;9.97;;;8.97;;
44165;SDS011;30476;53.468;9.826;2022-10-15T14:23:46;9.40;;;8.50;;
44165;SDS011;30476;53.468;9.826;2022-10-15T14:26:14;10.20;;;9.17;;
44165;SDS011;30476;53.468;9.826;2022-10-15T14:28:41;10.90;;;8.90;;
44165;SDS011;30476;53.468;9.826;2022-10-15T14:31:23;13.90;;;9.23;;
44165;SDS011;30476;53.468;9.826;2022-10-15T14:34:00;7.60;;;6.90;;
44165;SDS011;30476;53.468;9.826;2022-10-15T14:36:28;8.10;;;7.40;;
44165;SDS011;30476;53.468;9.826;2022-10-15T14:39:06;9.20;;;8.30;;
44165;SDS011;30476;53.468;9.826;2022-10-15T14:41:56;10.40;;;9.40;;
44165;SDS011;30476;53.468;9.826;2022-10-15T14:44:23;9.67;;;8.73;;
44165;SDS011;30476;53.468;9.826;2022-10-15T14:46:50;10.07;;;8.83;;
44165;SDS011;30476;53.468;9.826;2022-10-15T14:49:25;10.17;;;8.70;;
44165;SDS011;30476;53.468;9.826;2022-10-15T14:52:14;9.97;;;9.07;;
44165;SDS011;30476;53.468;9.826;2022-10-15T14:55:05;9.77;;;8.83;;
44165;SDS011;30476;53.468;9.826;2022-10-15T14:57:35;10.20;;;9.23;;
44165;SDS011;30476;53.468;9.826;2022-10-15T15:00:14;8.57;;;7.77;;
44165;SDS011;30476;53.468;9.826;2022-10-15T15:02:55;9.23;;;8.33;;
44165;SDS011;30476;53.468;9.826;2022-10-15T15:05:24;13.87;;;9.13;;
44165;SDS011;30476;53.468;9.826;2022-10-15T15:07:52;8.70;;;7.87;;
44165;SDS011;30476;53.468;9.826;2022-10-15T15:10:19;9.67;;;8.87;;
44165;SDS011;30476;53.468;9.826;2022-10-15T15:12:47;8.20;;;7.40;;
44165;SDS011;30476;53.468;9.826;2022-10-15T15:15:16;9.10;;;8.00;;
44165;SDS011;30476;53.468;9.826;2022-10-15T15:17:44;8.97;;;8.03;;
44165;SDS011;30476;53.468;9.826;2022-10-15T15:20:10;10.60;;;9.50;;
44165;SDS011;30476;53.468;9.826;2022-10-15T15:22:37;9.60;;;8.80;;
44165;SDS011;30476;53.468;9.826;2022-10-15T15:25:14;9.50;;;8.57;;
44165;SDS011;30476;53.468;9.826;2022-10-15T15:27:45;9.67;;;8.87;;
44165;SDS011;30476;53.468;9.826;2022-10-15T15:30:18;9.50;;;8.50;;
44165;SDS011;30476;53.468;9.826;2022-10-15T15:32:46;8.50;;;7.70;;
44165;SDS011;30476;53.468;9.826;2022-10-15T15:35:18;9.17;;;8.30;;
44165;SDS011;30476;53.468;9.826;2022-10-15T15:37:50;10.50;;;9.50;;
44165;SDS011;30476;53.468;9.826;2022-10-15T15:40:17;9.27;;;8.37;;
44165;SDS011;30476;53.468;9.826;2022-10-15T15:42:43;9.90;;;9.07;;
44165;SDS011;30476;53.468;9.826;2022-10-15T15:45:14;11.40;;;9.27;;
44165;SDS011;30476;53.468;9.826;2022-10-15T15:47:44;9.17;;;8.33;;
44165;SDS011;30476;53.468;9.826;2022-10-15T15:50:11;9.90;;;8.90;;
44165;SDS011;30476;53.468;9.826;2022-10-15T15:52:36;9.47;;;8.57;;
44165;SDS011;30476;53.468;9.826;2022-10-15T15:55:02;9.90;;;8.90;;
44165;SDS011;30476;53.468;9.826;2022-10-15T15:57:28;10.77;;;9.73;;
44165;SDS011;30476;53.468;9.826;2022-10-15T15:59:54;10.37;;;9.47;;
44165;SDS011;30476;53.468;9.826;2022-10-15T16:02:20;9.93;;;9.03;;
44165;SDS011;30476;53.468;9.826;2022-10-15T16:04:46;10.47;;;9.40;;
44165;SDS011;30476;53.468;9.826;2022-10-15T16:07:11;9.27;;;8.37;;
44165;SDS011;30476;53.468;9.826;2022-10-15T16:09:37;11.23;;;9.67;;
44165;SDS011;30476;53.468;9.826;2022-10-15T16:12:03;8.87;;;7.97;;
44165;SDS011;30476;53.468;9.826;2022-10-15T16:14:29;8.57;;;7.87;;
44165;SDS011;30476;53.468;9.826;2022-10-15T16:16:56;7.97;;;7.20;;
44165;SDS011;30476;53.468;9.826;2022-10-15T16:19:22;8.20;;;7.40;;
44165;SDS011;30476;53.468;9.826;2022-10-15T16:21:48;7.60;;;7.00;;
44165;SDS011;30476;53.468;9.826;2022-10-15T16:24:14;10.27;;;7.20;;
44165;SDS011;30476;53.468;9.826;2022-10-15T16:26:40;9.33;;;8.53;;
44165;SDS011;30476;53.468;9.826;2022-10-15T16:29:06;9.67;;;8.53;;
44165;SDS011;30476;53.468;9.826;2022-10-15T16:31:32;8.73;;;7.83;;
44165;SDS011;30476;53.468;9.826;2022-10-15T16:34:03;8.33;;;7.60;;
44165;SDS011;30476;53.468;9.826;2022-10-15T16:36:30;8.73;;;7.80;;
44165;SDS011;30476;53.468;9.826;2022-10-15T16:38:56;7.67;;;7.07;;
44165;SDS011;30476;53.468;9.826;2022-10-15T16:41:23;7.80;;;7.00;;
44165;SDS011;30476;53.468;9.826;2022-10-15T16:43:49;6.77;;;6.17;;
44165;SDS011;30476;53.468;9.826;2022-10-15T16:46:15;7.80;;;7.03;;
44165;SDS011;30476;53.468;9.826;2022-10-15T16:48:42;8.30;;;6.93;;